createdAt,value
2022-08-26T00:00:15.225Z,4.78
2022-08-26T00:03:03.086Z,5.37
2022-08-26T00:05:31.172Z,5.32
2022-08-26T00:07:59.063Z,5.10
2022-08-26T00:10:26.958Z,4.97
2022-08-26T00:12:55.125Z,5.03
2022-08-26T00:15:24.255Z,4.60
2022-08-26T00:17:54.000Z,4.85
2022-08-26T00:20:26.437Z,4.93
2022-08-26T00:22:54.902Z,4.70
2022-08-26T00:25:22.998Z,4.47
2022-08-26T00:27:51.665Z,4.80
2022-08-26T00:30:24.094Z,4.90
2022-08-26T00:32:52.891Z,4.65
2022-08-26T00:35:21.979Z,4.75
2022-08-26T00:37:51.767Z,4.50
2022-08-26T00:40:25.368Z,4.60
2022-08-26T00:42:53.327Z,4.93
2022-08-26T00:45:21.385Z,5.65
2022-08-26T00:47:54.598Z,5.32
2022-08-26T00:50:27.156Z,4.63
2022-08-26T00:52:59.530Z,5.17
2022-08-26T00:55:38.262Z,5.82
2022-08-26T00:58:07.780Z,5.40
2022-08-26T01:00:35.924Z,4.55
2022-08-26T01:03:05.247Z,5.55
2022-08-26T01:05:35.395Z,5.33
2022-08-26T01:08:03.742Z,4.57
2022-08-26T01:10:32.082Z,4.90
2022-08-26T01:13:03.534Z,5.43
2022-08-26T01:15:36.330Z,5.07
2022-08-26T01:18:06.381Z,5.37
2022-08-26T01:20:40.330Z,5.72
2022-08-26T01:23:11.385Z,5.15
2022-08-26T01:25:46.580Z,6.15
2022-08-26T01:28:25.670Z,5.25
2022-08-26T01:30:54.710Z,5.30
2022-08-26T01:33:29.922Z,5.75
2022-08-26T01:36:08.534Z,5.20
2022-08-26T01:38:36.507Z,5.03
2022-08-26T01:41:16.394Z,5.05
2022-08-26T01:43:53.123Z,5.33
2022-08-26T01:46:23.592Z,5.03
2022-08-26T01:48:54.489Z,5.10
2022-08-26T01:51:24.731Z,5.63
2022-08-26T01:53:52.876Z,5.45
2022-08-26T01:56:23.610Z,5.17
2022-08-26T01:58:58.517Z,6.40
2022-08-26T02:01:27.738Z,6.18
2022-08-26T02:04:08.643Z,5.88
2022-08-26T02:06:38.281Z,5.68
2022-08-26T02:09:08.580Z,5.70
2022-08-26T02:11:36.926Z,5.43
2022-08-26T02:14:12.032Z,5.70
2022-08-26T02:16:46.665Z,6.50
2022-08-26T02:19:28.152Z,5.93
2022-08-26T02:21:59.597Z,6.47
2022-08-26T02:24:30.883Z,5.50
2022-08-26T02:26:59.089Z,5.40
2022-08-26T02:29:33.413Z,4.97
2022-08-26T02:32:01.716Z,5.35
2022-08-26T02:34:33.586Z,4.57
2022-08-26T02:37:04.866Z,4.68
2022-08-26T02:39:35.232Z,5.05
2022-08-26T02:42:03.716Z,5.25
2022-08-26T02:44:32.033Z,4.97
2022-08-26T02:47:03.272Z,4.73
2022-08-26T02:49:33.127Z,4.70
2022-08-26T02:52:02.040Z,4.90
2022-08-26T02:54:30.370Z,5.20
2022-08-26T02:56:58.054Z,5.05
2022-08-26T02:59:26.054Z,5.23
2022-08-26T03:01:56.538Z,4.88
2022-08-26T03:04:25.879Z,5.13
2022-08-26T03:06:55.372Z,5.35
2022-08-26T03:09:24.108Z,4.90
2022-08-26T03:11:52.913Z,5.03
2022-08-26T03:14:21.195Z,4.90
2022-08-26T03:16:54.461Z,5.80
2022-08-26T03:19:24.745Z,5.18
2022-08-26T03:21:57.975Z,4.68
2022-08-26T03:24:26.845Z,4.60
2022-08-26T03:26:54.980Z,5.47
2022-08-26T03:29:41.983Z,4.72
2022-08-26T03:32:10.694Z,4.53
2022-08-26T03:34:38.688Z,4.30
2022-08-26T03:37:08.024Z,4.50
2022-08-26T03:39:36.387Z,4.57
2022-08-26T03:42:06.148Z,5.07
2022-08-26T03:44:33.875Z,5.60
2022-08-26T03:47:07.128Z,5.85
2022-08-26T03:49:36.195Z,5.90
2022-08-26T03:52:05.085Z,5.15
2022-08-26T03:54:34.360Z,5.00
2022-08-26T03:57:02.275Z,5.47
2022-08-26T03:59:31.282Z,5.70
2022-08-26T04:01:59.106Z,6.50
2022-08-26T04:04:27.102Z,6.60
2022-08-26T04:06:59.584Z,6.32
2022-08-26T04:09:28.341Z,6.30
2022-08-26T04:11:58.940Z,6.20
2022-08-26T04:14:28.106Z,7.33
2022-08-26T04:16:56.935Z,5.35
2022-08-26T04:19:26.329Z,7.22
2022-08-26T04:21:54.666Z,6.10
2022-08-26T04:24:25.071Z,5.47
2022-08-26T04:26:54.189Z,7.27
2022-08-26T04:29:24.330Z,5.53
2022-08-26T04:31:55.488Z,5.70
2022-08-26T04:34:28.574Z,6.35
2022-08-26T04:36:58.269Z,5.90
2022-08-26T04:39:27.660Z,6.20
2022-08-26T04:41:57.832Z,6.28
2022-08-26T04:44:30.037Z,5.97
2022-08-26T04:46:58.909Z,5.93
2022-08-26T04:49:27.488Z,5.65
2022-08-26T04:51:55.846Z,5.57
2022-08-26T04:54:23.958Z,5.88
2022-08-26T04:56:53.566Z,5.82
2022-08-26T04:59:21.766Z,5.93
2022-08-26T05:01:52.062Z,6.13
2022-08-26T05:04:21.468Z,5.80
2022-08-26T05:06:50.468Z,6.10
2022-08-26T05:09:20.405Z,6.10
2022-08-26T05:11:51.886Z,7.15
2022-08-26T05:14:23.479Z,6.70
2022-08-26T05:16:52.470Z,6.93
2022-08-26T05:19:21.101Z,6.10
2022-08-26T05:21:49.583Z,6.40
2022-08-26T05:24:18.419Z,5.40
2022-08-26T05:26:48.021Z,6.78
2022-08-26T05:29:16.965Z,5.00
2022-08-26T05:31:45.570Z,5.53
2022-08-26T05:34:13.598Z,5.28
2022-08-26T05:36:42.032Z,7.13
2022-08-26T05:39:10.867Z,5.95
2022-08-26T05:41:41.401Z,5.90
2022-08-26T05:44:13.057Z,6.03
2022-08-26T05:46:43.967Z,6.50
2022-08-26T05:49:16.019Z,7.75
2022-08-26T05:51:47.928Z,6.00
2022-08-26T05:54:21.728Z,5.70
2022-08-26T05:56:51.966Z,5.32
2022-08-26T05:59:21.353Z,5.45
2022-08-26T06:01:55.199Z,5.43
2022-08-26T06:04:27.023Z,5.32
2022-08-26T06:06:56.292Z,5.77
2022-08-26T06:09:24.231Z,5.50
2022-08-26T06:11:52.871Z,5.60
2022-08-26T06:14:21.776Z,6.00
2022-08-26T06:16:50.038Z,4.88
2022-08-26T06:19:18.062Z,5.40
2022-08-26T06:21:51.288Z,5.40
2022-08-26T06:24:41.443Z,5.40
2022-08-26T06:27:13.946Z,5.13
2022-08-26T06:29:43.338Z,6.35
2022-08-26T06:32:11.374Z,5.40
2022-08-26T06:34:39.237Z,5.82
2022-08-26T06:37:07.518Z,6.30
2022-08-26T06:39:35.648Z,5.93
2022-08-26T06:42:10.915Z,5.95
2022-08-26T06:44:44.820Z,5.90
2022-08-26T06:47:12.927Z,6.05
2022-08-26T06:49:41.471Z,7.47
2022-08-26T06:52:09.560Z,7.03
2022-08-26T06:54:41.875Z,6.93
2022-08-26T06:57:12.494Z,6.27
2022-08-26T06:59:42.831Z,6.32
2022-08-26T07:02:10.997Z,6.18
2022-08-26T07:04:42.172Z,5.72
2022-08-26T07:07:14.595Z,5.57
2022-08-26T07:09:42.887Z,5.60
2022-08-26T07:12:10.636Z,5.88
2022-08-26T07:14:39.554Z,5.35
2022-08-26T07:17:11.069Z,5.40
2022-08-26T07:19:42.203Z,4.95
2022-08-26T07:22:10.583Z,6.00
2022-08-26T07:24:42.918Z,4.78
2022-08-26T07:27:15.241Z,5.10
2022-08-26T07:29:44.053Z,5.38
2022-08-26T07:32:15.614Z,5.95
2022-08-26T07:34:44.160Z,5.30
2022-08-26T07:37:12.539Z,5.30
2022-08-26T07:39:43.253Z,5.50
2022-08-26T07:42:14.494Z,4.80
2022-08-26T07:44:43.722Z,5.03
2022-08-26T07:47:25.276Z,5.60
2022-08-26T07:49:57.776Z,6.32
2022-08-26T07:52:28.185Z,6.20
2022-08-26T07:54:58.510Z,5.80
2022-08-26T07:57:27.634Z,5.32
2022-08-26T07:59:56.121Z,5.20
2022-08-26T08:02:25.867Z,4.82
2022-08-26T08:04:54.856Z,4.85
2022-08-26T08:07:38.703Z,4.53
2022-08-26T08:10:20.819Z,5.10
2022-08-26T08:12:49.894Z,5.40
2022-08-26T08:15:20.499Z,4.80
2022-08-26T08:17:50.399Z,6.00
2022-08-26T08:20:20.794Z,5.03
2022-08-26T08:22:48.986Z,5.60
2022-08-26T08:25:16.850Z,5.50
2022-08-26T08:27:49.105Z,4.50
2022-08-26T08:30:23.030Z,5.53
2022-08-26T08:32:52.781Z,4.45
2022-08-26T08:35:22.761Z,5.15
2022-08-26T08:37:54.653Z,5.63
2022-08-26T08:40:26.471Z,5.68
2022-08-26T08:43:04.522Z,5.70
2022-08-26T08:45:44.742Z,5.25
2022-08-26T08:48:28.143Z,4.38
2022-08-26T08:51:07.866Z,4.87
2022-08-26T08:53:39.438Z,4.28
2022-08-26T08:56:29.169Z,4.60
2022-08-26T08:59:00.385Z,4.63
2022-08-26T09:01:52.425Z,4.25
2022-08-26T09:04:22.215Z,4.43
2022-08-26T09:06:55.127Z,4.30
2022-08-26T09:09:42.101Z,4.68
2022-08-26T09:12:17.152Z,4.07
2022-08-26T09:14:51.105Z,3.97
2022-08-26T09:17:33.905Z,3.90
2022-08-26T09:20:24.873Z,4.00
2022-08-26T09:22:53.367Z,3.65
2022-08-26T09:25:21.198Z,3.75
2022-08-26T09:27:52.603Z,4.10
2022-08-26T09:30:33.447Z,4.10
2022-08-26T09:33:10.319Z,3.97
2022-08-26T09:35:41.920Z,3.63
2022-08-26T09:38:33.282Z,4.00
2022-08-26T09:41:21.566Z,3.58
2022-08-26T09:44:04.728Z,3.50
2022-08-26T09:46:33.360Z,4.03
2022-08-26T09:49:21.662Z,3.50
2022-08-26T09:52:21.629Z,3.95
2022-08-26T09:55:12.924Z,3.85
2022-08-26T09:57:51.670Z,3.40
2022-08-26T10:00:27.601Z,3.80
2022-08-26T10:02:58.150Z,3.78
2022-08-26T10:05:32.192Z,3.63
2022-08-26T10:08:01.591Z,3.47
2022-08-26T10:10:45.528Z,3.80
2022-08-26T10:13:26.394Z,3.25
2022-08-26T10:16:11.297Z,3.33
2022-08-26T10:18:45.582Z,3.80
2022-08-26T10:21:18.643Z,3.60
2022-08-26T10:23:56.485Z,3.23
2022-08-26T10:26:43.091Z,3.53
2022-08-26T10:29:19.734Z,3.55
2022-08-26T10:31:52.323Z,3.20
2022-08-26T10:34:21.249Z,3.90
2022-08-26T10:37:15.753Z,3.83
2022-08-26T10:39:57.287Z,3.83
2022-08-26T10:42:38.383Z,3.78
2022-08-26T10:45:16.986Z,3.90
2022-08-26T10:48:00.395Z,3.78
2022-08-26T10:50:39.612Z,3.53
2022-08-26T10:53:58.632Z,4.00
2022-08-26T10:56:35.703Z,4.05
2022-08-26T10:59:12.689Z,3.50
2022-08-26T11:01:51.149Z,3.08
2022-08-26T11:04:26.633Z,3.93
2022-08-26T11:07:32.085Z,3.38
2022-08-26T11:10:24.207Z,3.28
2022-08-26T11:12:58.351Z,3.20
2022-08-26T11:15:29.753Z,2.83
2022-08-26T11:18:01.497Z,3.17
2022-08-26T11:20:47.250Z,3.38
2022-08-26T11:23:22.596Z,3.97
2022-08-26T11:25:57.265Z,3.20
2022-08-26T11:28:43.974Z,4.82
2022-08-26T11:31:38.169Z,3.10
2022-08-26T11:34:08.704Z,3.42
2022-08-26T11:36:46.404Z,3.60
2022-08-26T11:39:38.402Z,3.75
2022-08-26T11:42:49.527Z,2.92
2022-08-26T11:45:28.708Z,3.30
2022-08-26T11:47:57.727Z,3.65
2022-08-26T11:50:29.036Z,3.33
2022-08-26T11:53:02.485Z,3.40
2022-08-26T11:55:32.971Z,3.08
2022-08-26T11:58:05.742Z,3.07
2022-08-26T12:00:50.499Z,3.03
2022-08-26T12:03:41.887Z,3.40
2022-08-26T12:06:17.256Z,3.38
2022-08-26T12:08:45.887Z,2.83
2022-08-26T12:11:29.464Z,3.40
2022-08-26T12:14:01.521Z,2.90
2022-08-26T12:16:33.206Z,3.03
2022-08-26T12:19:01.624Z,3.45
2022-08-26T12:21:34.743Z,3.42
2022-08-26T12:24:04.367Z,3.97
2022-08-26T12:26:37.242Z,3.88
2022-08-26T12:29:12.596Z,3.08
2022-08-26T12:31:49.127Z,3.28
2022-08-26T12:34:18.557Z,3.30
2022-08-26T12:36:54.181Z,3.20
2022-08-26T12:39:38.071Z,3.30
2022-08-26T12:42:23.186Z,3.40
2022-08-26T12:45:04.606Z,2.85
2022-08-26T12:47:42.483Z,3.63
2022-08-26T12:50:32.741Z,2.67
2022-08-26T12:53:26.907Z,3.58
2022-08-26T12:56:03.764Z,3.38
2022-08-26T12:58:37.406Z,3.42
2022-08-26T13:01:06.723Z,3.33
2022-08-26T13:03:34.563Z,3.83
2022-08-26T13:06:40.735Z,3.33
2022-08-26T13:09:08.757Z,4.00
2022-08-26T13:11:39.768Z,2.92
2022-08-26T13:14:18.458Z,3.67
2022-08-26T13:16:53.157Z,3.77
2022-08-26T13:19:23.362Z,2.83
2022-08-26T13:21:57.550Z,2.75
2022-08-26T13:24:36.890Z,2.58
2022-08-26T13:27:07.205Z,2.63
2022-08-26T13:29:36.262Z,3.10
2022-08-26T13:32:06.731Z,3.35
2022-08-26T13:34:37.124Z,3.22
2022-08-26T13:37:05.480Z,3.22
2022-08-26T13:39:33.530Z,2.63
2022-08-26T13:42:01.636Z,3.17
2022-08-26T13:44:29.615Z,3.45
2022-08-26T13:46:57.694Z,2.70
2022-08-26T13:49:25.546Z,3.20
2022-08-26T13:51:53.635Z,2.38
2022-08-26T13:54:21.602Z,2.63
2022-08-26T13:56:49.379Z,2.72
2022-08-26T13:59:17.526Z,2.60
2022-08-26T14:01:45.513Z,3.30
2022-08-26T14:04:13.188Z,2.78
2022-08-26T14:06:41.321Z,2.50
2022-08-26T14:09:09.115Z,2.97
2022-08-26T14:11:50.756Z,3.13
2022-08-26T14:14:23.195Z,2.83
2022-08-26T14:16:58.895Z,2.70
2022-08-26T14:19:30.350Z,3.20
2022-08-26T14:22:01.155Z,2.58
2022-08-26T14:24:29.845Z,2.80
2022-08-26T14:26:57.701Z,2.88
2022-08-26T14:29:26.472Z,3.10
2022-08-26T14:31:57.385Z,3.07
2022-08-26T14:34:25.677Z,2.47
2022-08-26T14:36:53.321Z,3.45
2022-08-26T14:39:22.314Z,3.05
2022-08-26T14:41:55.006Z,2.65
2022-08-26T14:44:28.078Z,3.00
2022-08-26T14:46:56.246Z,2.60
2022-08-26T14:49:25.458Z,3.03
2022-08-26T14:51:53.933Z,2.60
2022-08-26T14:54:21.810Z,2.90
2022-08-26T14:57:01.171Z,3.00
2022-08-26T14:59:36.148Z,3.60
2022-08-26T15:02:05.831Z,2.78
2022-08-26T15:04:34.272Z,3.08
2022-08-26T15:07:03.798Z,2.90
2022-08-26T15:09:34.904Z,2.60
2022-08-26T15:12:03.858Z,3.03
2022-08-26T15:14:33.062Z,3.20
2022-08-26T15:17:01.810Z,3.00
2022-08-26T15:19:29.620Z,3.00
2022-08-26T15:21:57.509Z,3.03
2022-08-26T15:24:26.664Z,3.10
2022-08-26T15:26:55.118Z,3.28
2022-08-26T15:29:24.378Z,2.67
2022-08-26T15:31:55.971Z,2.83
2022-08-26T15:34:25.784Z,3.37
2022-08-26T15:36:54.372Z,2.85
2022-08-26T15:39:22.283Z,2.90
2022-08-26T15:41:50.917Z,3.50
2022-08-26T15:44:20.061Z,2.85
2022-08-26T15:46:50.055Z,3.20
2022-08-26T15:49:18.849Z,3.25
2022-08-26T15:51:50.826Z,3.38
2022-08-26T15:54:21.226Z,2.72
2022-08-26T15:56:52.043Z,3.38
2022-08-26T15:59:21.806Z,3.43
2022-08-26T16:01:50.028Z,4.20
2022-08-26T16:04:18.963Z,4.10
2022-08-26T16:06:50.535Z,3.05
2022-08-26T16:09:24.487Z,3.47
2022-08-26T16:11:56.110Z,3.33
2022-08-26T16:14:24.925Z,3.17
2022-08-26T16:16:53.690Z,2.95
2022-08-26T16:19:21.716Z,3.15
2022-08-26T16:21:51.680Z,3.08
2022-08-26T16:24:28.387Z,2.87
2022-08-26T16:26:58.669Z,3.22
2022-08-26T16:29:26.418Z,3.08
2022-08-26T16:31:55.002Z,3.58
2022-08-26T16:34:23.354Z,3.08
2022-08-26T16:36:52.359Z,3.73
2022-08-26T16:39:20.045Z,2.70
2022-08-26T16:41:48.474Z,3.13
2022-08-26T16:44:16.278Z,2.85
2022-08-26T16:46:44.940Z,4.03
2022-08-26T16:49:13.071Z,3.30
2022-08-26T16:51:41.230Z,4.05
2022-08-26T16:54:09.459Z,3.25
2022-08-26T16:56:38.384Z,3.90
2022-08-26T16:59:12.503Z,3.70
2022-08-26T17:01:41.086Z,3.60
2022-08-26T17:04:09.302Z,4.15
2022-08-26T17:06:38.603Z,4.07
2022-08-26T17:09:07.209Z,3.25
2022-08-26T17:11:35.680Z,3.65
2022-08-26T17:14:03.999Z,3.17
2022-08-26T17:16:33.305Z,4.05
2022-08-26T17:19:04.753Z,3.50
2022-08-26T17:21:37.135Z,3.95
2022-08-26T17:24:07.304Z,4.55
2022-08-26T17:26:38.848Z,3.43
2022-08-26T17:29:08.095Z,3.65
2022-08-26T17:31:38.236Z,3.80
2022-08-26T17:34:07.406Z,3.30
2022-08-26T17:36:36.225Z,3.63
2022-08-26T17:39:08.038Z,3.20
2022-08-26T17:41:38.957Z,3.40
2022-08-26T17:44:08.348Z,3.00
2022-08-26T17:46:38.466Z,3.30
2022-08-26T17:49:08.986Z,3.22
2022-08-26T17:51:38.086Z,4.10
2022-08-26T17:54:07.298Z,3.47
2022-08-26T17:56:36.051Z,3.78
2022-08-26T17:59:04.732Z,3.50
2022-08-26T18:01:33.174Z,3.13
2022-08-26T18:04:04.129Z,3.70
2022-08-26T18:06:32.677Z,3.10
2022-08-26T18:09:00.903Z,3.47
2022-08-26T18:11:31.218Z,3.15
2022-08-26T18:14:00.845Z,3.70
2022-08-26T18:16:32.008Z,3.23
2022-08-26T18:19:00.668Z,3.28
2022-08-26T18:21:29.602Z,3.53
2022-08-26T18:23:58.790Z,3.25
2022-08-26T18:26:35.223Z,2.92
2022-08-26T18:29:07.889Z,3.37
2022-08-26T18:31:36.726Z,2.70
2022-08-26T18:34:06.030Z,2.90
2022-08-26T18:36:37.145Z,3.50
2022-08-26T18:39:06.480Z,3.45
2022-08-26T18:41:43.053Z,3.73
2022-08-26T18:44:13.948Z,3.90
2022-08-26T18:46:42.256Z,4.20
2022-08-26T18:49:11.715Z,3.50
2022-08-26T18:51:40.702Z,2.78
2022-08-26T18:54:12.086Z,2.97
2022-08-26T18:56:42.570Z,2.83
2022-08-26T18:59:12.507Z,2.85
2022-08-26T19:01:42.615Z,3.13
2022-08-26T19:04:35.323Z,2.80
2022-08-26T19:07:03.737Z,3.40
2022-08-26T19:09:31.998Z,3.58
2022-08-26T19:12:00.267Z,3.53
2022-08-26T19:14:29.957Z,2.88
2022-08-26T19:16:58.385Z,3.80
2022-08-26T19:19:26.430Z,3.03
2022-08-26T19:21:55.139Z,3.20
2022-08-26T19:24:28.245Z,4.03
2022-08-26T19:27:00.127Z,3.47
2022-08-26T19:29:31.756Z,3.58
2022-08-26T19:32:00.218Z,3.27
2022-08-26T19:34:29.925Z,3.05
2022-08-26T19:36:58.703Z,3.25
2022-08-26T19:39:27.758Z,3.50
2022-08-26T19:41:57.731Z,3.63
2022-08-26T19:44:46.233Z,3.50
2022-08-26T19:47:19.454Z,3.15
2022-08-26T19:49:54.662Z,3.30
2022-08-26T19:52:30.230Z,3.10
2022-08-26T19:55:04.372Z,2.95
2022-08-26T19:57:37.117Z,3.30
2022-08-26T20:00:09.559Z,3.35
2022-08-26T20:02:39.806Z,3.13
2022-08-26T20:05:14.167Z,3.33
2022-08-26T20:07:44.167Z,3.70
2022-08-26T20:10:37.761Z,3.63
2022-08-26T20:13:07.638Z,3.17
2022-08-26T20:15:36.494Z,3.00
2022-08-26T20:18:24.756Z,3.40
2022-08-26T20:21:12.100Z,3.17
2022-08-26T20:23:40.012Z,3.37
2022-08-26T20:26:08.006Z,3.47
2022-08-26T20:28:37.070Z,3.05
2022-08-26T20:31:04.860Z,3.10
2022-08-26T20:33:46.119Z,3.55
2022-08-26T20:36:15.961Z,2.97
2022-08-26T20:38:45.489Z,3.13
2022-08-26T20:41:14.470Z,3.13
2022-08-26T20:43:46.723Z,2.88
2022-08-26T20:46:19.490Z,3.05
2022-08-26T20:48:49.427Z,3.13
2022-08-26T20:51:18.213Z,2.95
2022-08-26T20:53:46.366Z,3.08
2022-08-26T20:56:15.964Z,3.33
2022-08-26T20:58:44.123Z,3.42
2022-08-26T21:01:21.194Z,3.30
2022-08-26T21:03:52.228Z,3.35
2022-08-26T21:06:20.108Z,3.40
2022-08-26T21:08:48.845Z,3.15
2022-08-26T21:11:19.827Z,3.20
2022-08-26T21:14:04.351Z,3.77
2022-08-26T21:16:37.661Z,3.58
2022-08-26T21:19:07.604Z,3.42
2022-08-26T21:21:35.913Z,3.95
2022-08-26T21:24:04.235Z,3.97
2022-08-26T21:26:33.511Z,3.70
2022-08-26T21:29:02.789Z,4.10
2022-08-26T21:31:32.353Z,3.53
2022-08-26T21:34:00.210Z,2.97
2022-08-26T21:36:28.188Z,3.13
2022-08-26T21:38:59.850Z,3.10
2022-08-26T21:41:28.752Z,3.30
2022-08-26T21:43:59.561Z,3.00
2022-08-26T21:46:30.057Z,3.17
2022-08-26T21:49:04.280Z,3.00
2022-08-26T21:51:37.182Z,3.27
2022-08-26T21:54:10.695Z,3.47
2022-08-26T21:56:47.380Z,3.50
2022-08-26T21:59:17.845Z,3.40
2022-08-26T22:01:46.065Z,3.53
2022-08-26T22:04:14.338Z,3.50
2022-08-26T22:06:46.268Z,3.03
2022-08-26T22:09:15.865Z,3.47
2022-08-26T22:11:44.734Z,3.08
2022-08-26T22:14:12.718Z,3.70
2022-08-26T22:16:40.727Z,3.00
2022-08-26T22:19:10.317Z,3.42
2022-08-26T22:21:45.652Z,3.83
2022-08-26T22:24:13.751Z,3.70
2022-08-26T22:26:41.554Z,3.28
2022-08-26T22:29:09.305Z,3.50
2022-08-26T22:31:38.771Z,3.92
2022-08-26T22:34:12.894Z,3.88
2022-08-26T22:36:45.829Z,3.75
2022-08-26T22:39:16.002Z,3.70
2022-08-26T22:41:45.296Z,3.20
2022-08-26T22:44:13.114Z,3.50
2022-08-26T22:46:42.375Z,4.15
2022-08-26T22:49:12.784Z,4.03
2022-08-26T22:51:40.588Z,4.00
2022-08-26T22:54:08.402Z,3.70
2022-08-26T22:56:37.155Z,3.58
2022-08-26T22:59:07.108Z,3.53
2022-08-26T23:01:40.006Z,3.65
2022-08-26T23:04:08.692Z,3.97
2022-08-26T23:06:38.409Z,4.00
2022-08-26T23:09:07.791Z,4.03
2022-08-26T23:11:36.153Z,3.22
2022-08-26T23:14:06.646Z,3.63
2022-08-26T23:16:39.321Z,3.75
2022-08-26T23:19:13.430Z,3.70
2022-08-26T23:21:41.373Z,3.33
2022-08-26T23:24:10.301Z,3.22
2022-08-26T23:26:40.238Z,3.58
2022-08-26T23:29:10.480Z,3.58
2022-08-26T23:31:40.833Z,3.57
2022-08-26T23:34:27.188Z,3.50
2022-08-26T23:36:58.217Z,4.15
2022-08-26T23:39:30.777Z,3.65
2022-08-26T23:42:01.884Z,3.60
2022-08-26T23:44:31.306Z,4.40
2022-08-26T23:47:00.082Z,3.67
2022-08-26T23:49:29.269Z,3.92
2022-08-26T23:52:16.464Z,4.32
2022-08-26T23:54:44.738Z,3.85
2022-08-26T23:57:12.473Z,3.97
2022-08-26T23:59:40.680Z,3.63
